Paradise, MI (49768)

11:37 PM EDT on March 28, 2015 (GMT -0400)
MARITIME | | Change Station
CLOSE
Current Station
Personal Weather Station
Location: Sheboygan, WI
Elevation: 577 ft
Nearby Weather Stations

Elev 577 ft 43.70 °N, 87.30 °W | Updated 354 days ago

Clear
Clear
16 °F
Feels Like 4 °F
N
10
Wind Variable Wind from SSW
Gusts 18 mph

Today
High -- | Low -- °F
--% Chance of Precip.
Yesterday
High -- | Low -- °F
Precip. -- in
7:28 AM 8:03 PM
Waxing Gibbous, 68% visible
Pressure 30.14 in
Visibility 10.0 miles
Clouds Clear
Windchill 4 °F
Dew Point 13 °F
Humidity 87%
Rainfall in
Snow Depth Not available.
UV 0 out of 12
Pollen 1.20 out of 12
Air Quality Not available.
Flu Activity Not available.
METAR KERY 290314Z AUTO 19011KT 10SM CLR M06/M07 A3014 RMK AO2 T10601070

More Conditions Fewer Conditions

Pressure 30.14 in
Visibility 10.0 miles
Clouds Clear
Windchill 4 °F
Dew Point 13 °F
Humidity 87%
Rainfall in
Snow Depth Not available.
UV 0 out of 12
Pollen 1.20 out of 12
Air Quality Not available.
Flu Activity Not available.
METAR KERY 290314Z AUTO 19011KT 10SM CLR M06/M07 A3014 RMK AO2 T10601070

More Conditions Fewer Conditions

Nowcast | as of 11:00 PM EDT on March 28, 2015

At 12 am...mostly clear. Temperature 16. South winds 6 mph. At 2 am...mostly clear. Temperature 15. South winds 6 mph. At 4 am...mostly clear. Temperature 15. South winds 6 mph. At 6 am...partly cloudy. Temperature 15. South winds 7 mph.

×

10-Day Weather Forecast

Almanac

Astronomy

Mar. 28, 2015 Rise Set
Actual Time
Civil Twilight
Nautical Twilight
Astronomical Twilight
Moon
Length of Visible Light
Length of Day
Tomorrow will be .
, % of the Moon is Illuminated

Today's Extremes

State Highs State Lows

Community

WunderPhotos

Upload Photos

1,809,175 photos uploaded!

WunderBlogs® & News

Nearby

Air Quality

  Air Quality AQ Index Pollutant
Not available.

Snow Depth

Station Depth Elevation

Earthquake Activity

City Distance Mag. Time & Date
Minimum magnitude displayed is 2.5.

Coastal Water Temperatures

Place Temperature

Stations

Nearby Weather Stations

Station Location Temp. Windchill Dew Point Humidity Wind Precip. Elev Updated Type